createdAt,value
2023-03-01T00:02:33.932Z,51.58
2023-03-01T00:05:57.331Z,52.68
2023-03-01T00:09:14.980Z,53.15
2023-03-01T00:15:51.119Z,53.35
2023-03-01T00:19:09.094Z,51.85
2023-03-01T00:22:25.746Z,51.43
2023-03-01T00:25:42.607Z,55.65
2023-03-01T00:29:00.010Z,58.45
2023-03-01T00:32:16.798Z,54.55
2023-03-01T00:35:33.553Z,56.55
2023-03-01T00:38:52.710Z,55.18
2023-03-01T00:45:25.408Z,57.03
2023-03-01T00:48:41.913Z,55.28
2023-03-01T00:51:58.432Z,57.55
2023-03-01T00:55:16.741Z,54.78
2023-03-01T01:01:49.039Z,56.55
2023-03-01T01:05:05.496Z,58.73
2023-03-01T01:08:22.495Z,57.28
2023-03-01T01:14:54.466Z,65.90
2023-03-01T01:18:10.898Z,66.55
2023-03-01T01:21:30.459Z,60.63
2023-03-01T01:24:46.754Z,64.18
2023-03-01T01:28:03.216Z,61.95
2023-03-01T01:31:20.283Z,63.88
2023-03-01T01:34:36.976Z,65.73
2023-03-01T01:37:53.709Z,68.83
2023-03-01T01:41:10.609Z,66.48
2023-03-01T01:44:31.500Z,67.98
2023-03-01T01:47:50.066Z,69.20
2023-03-01T01:51:09.673Z,65.60
2023-03-01T02:00:59.184Z,73.18
2023-03-01T02:04:16.156Z,70.98
2023-03-01T02:07:34.859Z,70.25
2023-03-01T02:10:51.680Z,72.73
2023-03-01T02:14:08.340Z,74.63
2023-03-01T02:17:27.136Z,75.20
2023-03-01T02:20:50.126Z,70.43
2023-03-01T02:24:10.951Z,78.70
2023-03-01T02:34:00.203Z,84.28
2023-03-01T02:37:24.509Z,73.05
2023-03-01T02:40:42.969Z,84.75
2023-03-01T02:44:00.822Z,77.03
2023-03-01T02:47:18.258Z,81.00
2023-03-01T02:50:57.284Z,79.50
2023-03-01T02:54:24.854Z,81.13
2023-03-01T02:57:45.080Z,84.35
2023-03-01T03:01:02.744Z,85.05
2023-03-01T03:04:23.325Z,87.53
2023-03-01T03:07:40.133Z,92.83
2023-03-01T03:10:56.316Z,90.50
2023-03-01T03:14:14.410Z,89.60
2023-03-01T03:17:32.245Z,91.10
2023-03-01T03:20:53.133Z,94.18
2023-03-01T03:24:09.472Z,94.18
2023-03-01T03:27:25.524Z,96.50
2023-03-01T03:30:43.046Z,95.75
2023-03-01T03:34:00.746Z,90.83
2023-03-01T03:37:18.606Z,86.93
2023-03-01T03:40:37.906Z,92.20
2023-03-01T03:43:54.200Z,89.60
2023-03-01T03:47:10.355Z,85.13
2023-03-01T03:50:27.872Z,81.98
2023-03-01T03:53:44.053Z,88.42
2023-03-01T03:57:00.139Z,88.80
2023-03-01T04:00:21.726Z,93.00
2023-03-01T04:03:40.018Z,83.15
2023-03-01T04:06:56.082Z,82.63
2023-03-01T04:10:14.305Z,84.20
2023-03-01T04:13:31.580Z,84.00
2023-03-01T04:16:47.655Z,90.13
2023-03-01T04:20:05.869Z,82.30
2023-03-01T04:23:24.941Z,89.48
2023-03-01T04:26:41.053Z,87.78
2023-03-01T04:29:57.436Z,82.08
2023-03-01T04:33:15.890Z,83.90
2023-03-01T04:36:37.094Z,88.50
2023-03-01T04:39:53.565Z,94.25
2023-03-01T04:43:10.349Z,92.43
2023-03-01T04:46:28.572Z,88.20
2023-03-01T04:49:44.805Z,87.55
2023-03-01T04:53:01.038Z,85.98
2023-03-01T04:56:19.933Z,80.60
2023-03-01T04:59:38.243Z,91.53
2023-03-01T05:02:59.542Z,86.25
2023-03-01T05:06:17.021Z,88.97
2023-03-01T05:09:33.212Z,89.05
2023-03-01T05:12:49.335Z,88.83
2023-03-01T05:16:11.033Z,90.05
2023-03-01T05:19:28.888Z,83.65
2023-03-01T05:22:45.606Z,92.05
2023-03-01T05:26:03.061Z,92.68
2023-03-01T05:29:19.404Z,90.33
2023-03-01T05:32:35.643Z,83.28
2023-03-01T05:35:55.328Z,88.23
2023-03-01T05:39:11.643Z,84.93
2023-03-01T05:42:27.828Z,88.28
2023-03-01T05:45:45.422Z,87.85
2023-03-01T05:49:02.472Z,88.75
2023-03-01T05:52:18.464Z,88.95
2023-03-01T05:55:36.198Z,91.75
2023-03-01T05:58:54.161Z,86.43
2023-03-01T06:02:10.570Z,90.25
2023-03-01T06:05:27.363Z,88.58
2023-03-01T06:08:43.610Z,89.38
2023-03-01T06:12:02.470Z,92.15
2023-03-01T06:15:21.833Z,86.43
2023-03-01T06:21:51.788Z,85.98
2023-03-01T06:25:08.120Z,89.05
2023-03-01T06:28:24.569Z,90.58
2023-03-01T06:31:40.879Z,84.88
2023-03-01T06:34:57.489Z,86.80
2023-03-01T06:38:16.731Z,89.25
2023-03-01T06:41:33.206Z,91.08
2023-03-01T06:44:50.521Z,88.78
2023-03-01T06:48:14.952Z,83.45
2023-03-01T06:51:31.233Z,87.28
2023-03-01T06:54:47.310Z,87.03
2023-03-01T06:58:06.997Z,89.23
2023-03-01T07:01:23.227Z,84.88
2023-03-01T07:04:39.739Z,84.50
2023-03-01T07:07:56.783Z,84.60
2023-03-01T07:11:13.332Z,84.55
2023-03-01T07:14:30.614Z,75.58
2023-03-01T07:17:48.713Z,77.95
2023-03-01T07:21:05.371Z,77.00
2023-03-01T07:24:23.135Z,81.20
2023-03-01T07:27:39.436Z,79.38
2023-03-01T07:30:55.899Z,74.35
2023-03-01T07:34:13.817Z,76.60
2023-03-01T07:37:32.446Z,82.68
2023-03-01T07:40:48.725Z,76.25
2023-03-01T07:44:05.065Z,74.28
2023-03-01T07:47:21.140Z,72.73
2023-03-01T07:50:37.348Z,70.40
2023-03-01T07:53:56.054Z,71.80
2023-03-01T07:57:12.193Z,74.45
2023-03-01T08:00:31.045Z,69.90
2023-03-01T08:03:48.603Z,73.28
2023-03-01T08:07:05.297Z,76.75
2023-03-01T08:10:24.251Z,87.65
2023-03-01T08:16:59.184Z,89.33
2023-03-01T08:20:20.012Z,96.88
2023-03-01T08:23:36.697Z,79.25
2023-03-01T08:27:28.580Z,87.75
2023-03-01T08:30:46.233Z,73.13
2023-03-01T08:34:05.723Z,71.33
2023-03-01T08:37:22.340Z,73.18
2023-03-01T08:40:38.610Z,83.48
2023-03-01T08:47:10.540Z,77.58
2023-03-01T08:50:32.025Z,71.68
2023-03-01T08:53:48.259Z,76.18
2023-03-01T08:57:05.241Z,70.43
2023-03-01T09:00:23.798Z,64.25
2023-03-01T09:03:39.893Z,57.20
2023-03-01T09:06:56.420Z,61.85
2023-03-01T09:10:14.583Z,58.25
2023-03-01T09:13:32.862Z,56.18
2023-03-01T09:16:50.469Z,48.53
2023-03-01T09:20:11.929Z,65.70
2023-03-01T09:23:28.080Z,44.13
2023-03-01T09:26:44.349Z,37.90
2023-03-01T09:30:01.467Z,33.63
2023-03-01T09:33:19.157Z,39.38
2023-03-01T09:36:36.307Z,37.58
2023-03-01T09:39:54.611Z,43.68
2023-03-01T09:43:15.519Z,46.55
2023-03-01T09:46:34.532Z,41.98
2023-03-01T09:49:56.169Z,37.68
2023-03-01T09:53:17.782Z,42.20
2023-03-01T09:56:39.795Z,41.55
2023-03-01T10:00:31.987Z,39.10
2023-03-01T10:03:54.613Z,37.95
2023-03-01T10:07:27.437Z,34.93
2023-03-01T10:10:49.244Z,34.23
2023-03-01T10:14:13.219Z,32.13
2023-03-01T10:17:38.013Z,32.43
2023-03-01T10:21:00.154Z,32.83
2023-03-01T10:24:25.249Z,34.80
2023-03-01T10:27:48.477Z,31.65
2023-03-01T10:31:11.698Z,33.48
2023-03-01T10:34:36.410Z,30.08
2023-03-01T10:38:22.820Z,28.28
2023-03-01T10:41:41.185Z,25.98
2023-03-01T10:48:24.552Z,21.60
2023-03-01T10:52:32.115Z,28.03
2023-03-01T10:55:11.212Z,33.65
2023-03-01T10:58:59.407Z,31.43
2023-03-01T11:02:24.892Z,36.23
2023-03-01T11:05:39.741Z,38.85
2023-03-01T11:08:58.474Z,38.03
2023-03-01T11:12:22.245Z,39.53
2023-03-01T11:15:40.339Z,231.40
2023-03-01T11:19:08.090Z,88.45
2023-03-01T11:22:28.444Z,45.15
2023-03-01T11:25:51.015Z,39.25
2023-03-01T11:32:27.057Z,39.78
2023-03-01T11:35:48.156Z,37.48
2023-03-01T11:39:10.046Z,38.80
2023-03-01T11:42:33.076Z,39.68
2023-03-01T11:45:58.661Z,37.95
2023-03-01T11:49:38.054Z,39.10
2023-03-01T11:56:29.420Z,34.10
2023-03-01T12:00:14.325Z,31.25
2023-03-01T12:03:47.743Z,33.65
2023-03-01T12:07:12.523Z,32.05
2023-03-01T12:10:36.123Z,29.98
2023-03-01T12:20:38.960Z,36.38
2023-03-01T12:24:21.979Z,35.53
2023-03-01T12:27:54.066Z,35.18
2023-03-01T12:31:51.317Z,35.88
2023-03-01T12:35:50.449Z,33.65
2023-03-01T12:39:20.358Z,33.20
2023-03-01T12:42:44.760Z,34.25
2023-03-01T12:49:21.380Z,35.30
2023-03-01T12:52:45.227Z,37.88
2023-03-01T12:56:07.162Z,34.75
2023-03-01T12:59:31.777Z,32.88
2023-03-01T13:02:54.348Z,38.68
2023-03-01T13:06:19.538Z,35.03
2023-03-01T13:09:45.383Z,34.83
2023-03-01T13:13:23.405Z,33.80
2023-03-01T13:16:56.121Z,35.63
2023-03-01T13:20:22.738Z,32.45
2023-03-01T13:23:46.027Z,34.18
2023-03-01T13:27:34.111Z,28.75
2023-03-01T13:30:51.750Z,31.33
2023-03-01T13:34:10.808Z,28.53
2023-03-01T13:37:46.973Z,24.78
2023-03-01T13:41:11.896Z,25.88
2023-03-01T13:44:37.628Z,22.65
2023-03-01T13:47:57.210Z,23.90
2023-03-01T13:51:19.749Z,24.78
2023-03-01T13:54:43.225Z,23.35
2023-03-01T13:58:03.653Z,23.85
2023-03-01T14:04:42.354Z,25.43
2023-03-01T14:08:03.547Z,25.05
2023-03-01T14:11:42.403Z,25.38
2023-03-01T14:15:05.838Z,24.68
2023-03-01T14:18:26.562Z,24.75
2023-03-01T14:21:44.694Z,20.95
2023-03-01T14:25:04.951Z,21.33
2023-03-01T14:28:28.983Z,21.23
2023-03-01T14:35:02.716Z,24.13
2023-03-01T14:38:32.924Z,25.73
2023-03-01T14:41:49.283Z,20.58
2023-03-01T14:48:22.501Z,21.25
2023-03-01T14:51:39.853Z,23.85
2023-03-01T14:54:59.552Z,21.33
2023-03-01T14:58:20.468Z,74.48
2023-03-01T15:04:58.424Z,28.95
2023-03-01T15:08:20.097Z,22.88
2023-03-01T15:11:43.182Z,22.25
2023-03-01T15:18:25.676Z,23.53
2023-03-01T15:21:44.348Z,20.52
2023-03-01T15:25:03.471Z,19.53
2023-03-01T15:28:29.309Z,22.48
2023-03-01T15:35:01.167Z,23.65
2023-03-01T15:38:35.418Z,24.95
2023-03-01T15:41:59.661Z,96.23
2023-03-01T15:48:43.852Z,27.93
2023-03-01T15:52:02.049Z,26.20
2023-03-01T15:55:28.458Z,24.93
2023-03-01T15:58:45.302Z,30.10
2023-03-01T16:05:29.057Z,24.58
2023-03-01T16:08:45.483Z,28.03
2023-03-01T16:12:03.534Z,25.35
2023-03-01T16:15:31.866Z,24.80
2023-03-01T16:18:48.562Z,29.65
2023-03-01T16:22:05.246Z,28.30
2023-03-01T16:25:24.961Z,27.73
2023-03-01T16:28:41.351Z,32.98
2023-03-01T16:31:57.685Z,27.03
2023-03-01T16:35:16.626Z,26.60
2023-03-01T16:38:32.841Z,26.83
2023-03-01T16:41:48.808Z,25.38
2023-03-01T16:45:18.356Z,25.63
2023-03-01T16:48:27.315Z,29.48
2023-03-01T16:51:43.902Z,26.23
2023-03-01T16:55:00.394Z,27.65
2023-03-01T16:58:18.458Z,26.93
2023-03-01T17:04:50.284Z,23.28
2023-03-01T17:08:06.710Z,25.50
2023-03-01T17:11:26.658Z,85.90
2023-03-01T17:14:43.552Z,49.70
2023-03-01T17:17:59.851Z,31.40
2023-03-01T17:21:19.297Z,33.00
2023-03-01T17:24:35.536Z,27.00
2023-03-01T17:27:51.661Z,32.98
2023-03-01T17:31:14.022Z,34.65
2023-03-01T17:34:32.809Z,36.50
2023-03-01T17:37:50.751Z,36.68
2023-03-01T17:41:12.840Z,33.55
2023-03-01T17:44:30.997Z,41.73
2023-03-01T17:47:50.089Z,38.10
2023-03-01T17:51:07.290Z,38.58
2023-03-01T17:54:23.454Z,33.00
2023-03-01T17:57:40.564Z,36.38
2023-03-01T18:00:58.075Z,39.88
2023-03-01T18:04:14.995Z,42.88
2023-03-01T18:07:33.364Z,51.53
2023-03-01T18:10:50.452Z,47.70
2023-03-01T18:14:07.689Z,48.15
2023-03-01T18:20:41.020Z,52.20
2023-03-01T18:23:58.001Z,56.98
2023-03-01T18:27:14.519Z,52.45
2023-03-01T18:34:08.200Z,66.43
2023-03-01T18:37:26.410Z,55.68
2023-03-01T18:40:52.789Z,57.63
2023-03-01T18:44:09.968Z,56.45
2023-03-01T18:47:29.053Z,57.13
2023-03-01T18:50:49.505Z,59.13
2023-03-01T18:54:07.870Z,66.00
2023-03-01T18:57:28.450Z,71.28
2023-03-01T19:04:03.859Z,77.50
2023-03-01T19:07:23.390Z,68.68
2023-03-01T19:10:40.721Z,71.33
2023-03-01T19:14:00.727Z,68.43
2023-03-01T19:17:17.528Z,72.83
2023-03-01T19:20:38.450Z,72.73
2023-03-01T19:23:56.703Z,62.95
2023-03-01T19:27:14.732Z,68.33
2023-03-01T19:35:24.861Z,67.03
2023-03-01T19:38:41.905Z,67.05
2023-03-01T19:41:58.381Z,69.75
2023-03-01T19:45:25.316Z,64.30
2023-03-01T19:51:55.034Z,63.35
2023-03-01T19:55:12.624Z,70.73
2023-03-01T19:58:30.688Z,63.33
2023-03-01T20:01:48.119Z,70.30
2023-03-01T20:05:06.756Z,66.20
2023-03-01T20:08:24.552Z,69.83
2023-03-01T20:11:42.933Z,67.43
2023-03-01T20:15:00.700Z,66.20
2023-03-01T20:21:36.228Z,68.00
2023-03-01T20:24:54.016Z,70.80
2023-03-01T20:28:13.649Z,67.45
2023-03-01T20:34:49.448Z,66.03
2023-03-01T20:38:06.014Z,64.55
2023-03-01T20:41:25.204Z,74.40
2023-03-01T20:44:44.273Z,74.88
2023-03-01T20:48:14.928Z,68.68
2023-03-01T20:51:31.861Z,72.30
2023-03-01T20:54:48.611Z,67.33
2023-03-01T20:58:05.528Z,65.88
2023-03-01T21:01:26.196Z,72.15
2023-03-01T21:04:42.932Z,66.05
2023-03-01T21:08:01.533Z,65.83
2023-03-01T21:11:20.111Z,67.18
2023-03-01T21:14:39.226Z,70.08
2023-03-01T21:17:55.539Z,66.60
2023-03-01T21:21:15.553Z,63.83
2023-03-01T21:24:32.146Z,66.38
2023-03-01T21:27:48.758Z,63.68
2023-03-01T21:31:09.363Z,70.63
2023-03-01T21:34:26.162Z,74.93
2023-03-01T21:37:42.446Z,82.78
2023-03-01T21:40:58.597Z,78.78
2023-03-01T21:44:15.822Z,71.38
2023-03-01T21:47:34.240Z,72.00
2023-03-01T21:50:51.723Z,77.47
2023-03-01T21:54:08.599Z,69.38
2023-03-01T21:57:25.189Z,75.20
2023-03-01T22:00:43.489Z,65.93
2023-03-01T22:03:59.899Z,65.25
2023-03-01T22:07:16.276Z,69.63
2023-03-01T22:10:32.661Z,64.03
2023-03-01T22:13:50.183Z,64.20
2023-03-01T22:17:06.800Z,70.75
2023-03-01T22:20:25.102Z,61.85
2023-03-01T22:23:42.094Z,64.28
2023-03-01T22:27:00.346Z,69.28
2023-03-01T22:30:21.187Z,61.15
2023-03-01T22:33:37.608Z,66.68
2023-03-01T22:36:54.407Z,58.80
2023-03-01T22:40:12.231Z,60.73
2023-03-01T22:43:28.277Z,68.83
2023-03-01T22:46:44.643Z,62.08
2023-03-01T22:50:03.915Z,68.05
2023-03-01T22:53:20.782Z,66.00
2023-03-01T22:56:39.703Z,68.00
2023-03-01T22:59:55.870Z,62.35
2023-03-01T23:03:12.265Z,60.55
2023-03-01T23:06:31.224Z,62.23
2023-03-01T23:09:49.950Z,55.98
2023-03-01T23:13:06.599Z,66.68
2023-03-01T23:22:03.694Z,56.75
2023-03-01T23:25:21.292Z,64.00
2023-03-01T23:28:39.819Z,62.10
2023-03-01T23:31:56.267Z,61.10
2023-03-01T23:35:14.799Z,64.50
2023-03-01T23:38:31.190Z,62.95
2023-03-01T23:41:47.956Z,61.68
2023-03-01T23:45:04.065Z,63.13
2023-03-01T23:48:24.418Z,61.83
2023-03-01T23:51:40.459Z,63.98
2023-03-01T23:54:57.145Z,63.33
2023-03-01T23:58:13.335Z,62.73
